Аэропорт
Инчхон (RKSI)

 RKSI / ICN

Korea, Republic of
KR-28
Сеул-Инчхон
 37.46910, 126.45100  / 23 ft

 RKSI 201700Z 03003KT 320V060 2500 BR NSC 03/01 Q1034 NOSIG
 TAF AMD RKSI 201420Z 2014/2118 12005KT 2800 BR NSC TN00/2021Z TX11/2106Z BECMG 2100/2101 19008KT 6000 NSW TEMPO 2110/2112 23008KT 4200 -RA BKN030 BKN120 BECMG 2113/2114 31010KT 2500 -RA SCT005 BKN025 OVC080

2020 © VATRUS division (Privacy Policy)